sensor_id;sensor_type;location;lat;lon;timestamp;pressure;altitude;pressure_sealevel;temperature;humidity
73453;BME280;61687;56.232;43.854;2023-05-07T00:02:01;101433.56;;;-0.09;65.78
73453;BME280;61687;56.232;43.854;2023-05-07T00:04:29;101426.56;;;-0.10;66.25
73453;BME280;61687;56.232;43.854;2023-05-07T00:07:01;101423.56;;;-0.13;66.21
73453;BME280;61687;56.232;43.854;2023-05-07T00:09:27;101437.59;;;-0.11;66.39
73453;BME280;61687;56.232;43.854;2023-05-07T00:11:54;101436.75;;;-0.17;66.57
73453;BME280;61687;56.232;43.854;2023-05-07T00:14:20;101430.84;;;-0.19;66.42
73453;BME280;61687;56.232;43.854;2023-05-07T00:16:46;101440.00;;;-0.20;66.69
73453;BME280;61687;56.232;43.854;2023-05-07T00:19:12;101439.72;;;-0.24;66.66
73453;BME280;61687;56.232;43.854;2023-05-07T00:21:38;101437.28;;;-0.25;67.09
73453;BME280;61687;56.232;43.854;2023-05-07T00:24:04;101447.25;;;-0.26;67.10
73453;BME280;61687;56.232;43.854;2023-05-07T00:26:30;101441.59;;;-0.30;67.16
73453;BME280;61687;56.232;43.854;2023-05-07T00:28:57;101439.41;;;-0.33;67.23
73453;BME280;61687;56.232;43.854;2023-05-07T00:31:23;101449.13;;;-0.32;67.32
73453;BME280;61687;56.232;43.854;2023-05-07T00:33:49;101453.44;;;-0.31;67.46
73453;BME280;61687;56.232;43.854;2023-05-07T00:36:15;101449.41;;;-0.33;67.75
73453;BME280;61687;56.232;43.854;2023-05-07T00:38:41;101452.09;;;-0.33;67.75
73453;BME280;61687;56.232;43.854;2023-05-07T00:41:07;101450.72;;;-0.36;67.61
73453;BME280;61687;56.232;43.854;2023-05-07T00:43:33;101451.00;;;-0.32;67.89
73453;BME280;61687;56.232;43.854;2023-05-07T00:45:59;101452.63;;;-0.36;67.85
73453;BME280;61687;56.232;43.854;2023-05-07T00:48:25;101452.88;;;-0.38;68.23
73453;BME280;61687;56.232;43.854;2023-05-07T00:50:51;101451.78;;;-0.47;68.69
73453;BME280;61687;56.232;43.854;2023-05-07T00:53:18;101460.09;;;-0.49;69.36
73453;BME280;61687;56.232;43.854;2023-05-07T00:55:44;101453.38;;;-0.51;69.44
73453;BME280;61687;56.232;43.854;2023-05-07T00:58:10;101460.34;;;-0.55;69.69
73453;BME280;61687;56.232;43.854;2023-05-07T01:00:36;101455.50;;;-0.59;69.76
73453;BME280;61687;56.232;43.854;2023-05-07T01:03:02;101456.03;;;-0.56;70.03
73453;BME280;61687;56.232;43.854;2023-05-07T01:05:29;101456.03;;;-0.56;69.92
73453;BME280;61687;56.232;43.854;2023-05-07T01:07:56;101456.84;;;-0.56;70.17
73453;BME280;61687;56.232;43.854;2023-05-07T01:10:23;101460.63;;;-0.57;69.94
73453;BME280;61687;56.232;43.854;2023-05-07T01:12:50;101465.72;;;-0.55;70.28
73453;BME280;61687;56.232;43.854;2023-05-07T01:15:18;101464.94;;;-0.51;70.16
73453;BME280;61687;56.232;43.854;2023-05-07T01:17:44;101463.88;;;-0.55;70.15
73453;BME280;61687;56.232;43.854;2023-05-07T01:20:19;101462.25;;;-0.56;70.69
73453;BME280;61687;56.232;43.854;2023-05-07T01:22:47;101462.50;;;-0.58;70.71
73453;BME280;61687;56.232;43.854;2023-05-07T01:25:14;101469.47;;;-0.62;70.68
73453;BME280;61687;56.232;43.854;2023-05-07T01:27:45;101459.81;;;-0.58;70.88
73453;BME280;61687;56.232;43.854;2023-05-07T01:30:12;101477.56;;;-0.56;70.81
73453;BME280;61687;56.232;43.854;2023-05-07T01:32:51;101466.25;;;-0.59;70.77
73453;BME280;61687;56.232;43.854;2023-05-07T01:35:24;101469.78;;;-0.53;70.90
73453;BME280;61687;56.232;43.854;2023-05-07T01:37:51;101467.09;;;-0.53;70.91
73453;BME280;61687;56.232;43.854;2023-05-07T01:40:18;101459.56;;;-0.51;70.89
73453;BME280;61687;56.232;43.854;2023-05-07T01:42:47;101473.31;;;-0.47;70.84
73453;BME280;61687;56.232;43.854;2023-05-07T01:45:14;101483.03;;;-0.46;71.19
73453;BME280;61687;56.232;43.854;2023-05-07T01:47:40;101478.19;;;-0.44;71.12
73453;BME280;61687;56.232;43.854;2023-05-07T01:50:07;101474.41;;;-0.43;71.06
73453;BME280;61687;56.232;43.854;2023-05-07T01:52:39;101477.88;;;-0.48;71.46
73453;BME280;61687;56.232;43.854;2023-05-07T01:55:06;101488.41;;;-0.41;71.46
73453;BME280;61687;56.232;43.854;2023-05-07T01:57:32;101477.94;;;-0.37;71.33
73453;BME280;61687;56.232;43.854;2023-05-07T01:59:58;101481.16;;;-0.35;71.47
73453;BME280;61687;56.232;43.854;2023-05-07T02:02:24;101481.69;;;-0.38;71.90
73453;BME280;61687;56.232;43.854;2023-05-07T02:04:52;101488.47;;;-0.31;71.69
73453;BME280;61687;56.232;43.854;2023-05-07T02:07:18;101489.50;;;-0.37;72.19
73453;BME280;61687;56.232;43.854;2023-05-07T02:09:44;101486.84;;;-0.32;72.14
73453;BME280;61687;56.232;43.854;2023-05-07T02:12:11;101488.72;;;-0.32;71.96
73453;BME280;61687;56.232;43.854;2023-05-07T02:14:37;101486.31;;;-0.23;71.62
73453;BME280;61687;56.232;43.854;2023-05-07T02:17:03;101489.03;;;-0.18;71.32
73453;BME280;61687;56.232;43.854;2023-05-07T02:19:29;101487.72;;;-0.10;71.28
73453;BME280;61687;56.232;43.854;2023-05-07T02:21:55;101498.19;;;-0.14;71.56
73453;BME280;61687;56.232;43.854;2023-05-07T02:24:21;101506.31;;;-0.09;71.27
73453;BME280;61687;56.232;43.854;2023-05-07T02:26:47;101502.56;;;-0.03;71.22
73453;BME280;61687;56.232;43.854;2023-05-07T02:29:13;101506.31;;;0.02;71.17
73453;BME280;61687;56.232;43.854;2023-05-07T02:31:39;101504.19;;;0.09;71.10
73453;BME280;61687;56.232;43.854;2023-05-07T02:34:05;101507.69;;;0.14;70.99
73453;BME280;61687;56.232;43.854;2023-05-07T02:36:31;101511.75;;;0.17;70.86
73453;BME280;61687;56.232;43.854;2023-05-07T02:39:06;101518.50;;;0.20;70.89
73453;BME280;61687;56.232;43.854;2023-05-07T02:41:32;101511.75;;;0.22;70.73
73453;BME280;61687;56.232;43.854;2023-05-07T02:43:58;101515.00;;;0.30;70.67
73453;BME280;61687;56.232;43.854;2023-05-07T02:46:25;101515.28;;;0.38;70.46
73453;BME280;61687;56.232;43.854;2023-05-07T02:48:58;101519.88;;;0.48;70.23
73453;BME280;61687;56.232;43.854;2023-05-07T02:51:25;101522.06;;;0.56;69.98
73453;BME280;61687;56.232;43.854;2023-05-07T02:53:52;101520.97;;;0.57;70.15
73453;BME280;61687;56.232;43.854;2023-05-07T02:56:18;101524.47;;;0.63;69.88
73453;BME280;61687;56.232;43.854;2023-05-07T02:58:44;101522.06;;;0.62;70.14
73453;BME280;61687;56.232;43.854;2023-05-07T03:01:11;101527.69;;;0.60;70.20
73453;BME280;61687;56.232;43.854;2023-05-07T03:03:55;101531.22;;;0.71;69.93
73453;BME280;61687;56.232;43.854;2023-05-07T03:06:22;101533.91;;;0.71;69.92
73453;BME280;61687;56.232;43.854;2023-05-07T03:08:48;101536.06;;;0.84;69.29
73453;BME280;61687;56.232;43.854;2023-05-07T03:11:14;101544.72;;;0.97;69.16
73453;BME280;61687;56.232;43.854;2023-05-07T03:13:40;101546.03;;;0.99;68.87
73453;BME280;61687;56.232;43.854;2023-05-07T03:16:06;101547.41;;;1.02;68.96
73453;BME280;61687;56.232;43.854;2023-05-07T03:18:32;101544.69;;;1.12;68.63
73453;BME280;61687;56.232;43.854;2023-05-07T03:20:58;101536.84;;;1.21;68.14
73453;BME280;61687;56.232;43.854;2023-05-07T03:23:24;101539.81;;;1.25;67.83
73453;BME280;61687;56.232;43.854;2023-05-07T03:25:50;101545.22;;;1.20;67.87
73453;BME280;61687;56.232;43.854;2023-05-07T03:28:17;101537.63;;;1.32;67.59
73453;BME280;61687;56.232;43.854;2023-05-07T03:30:49;101545.69;;;1.37;67.19
73453;BME280;61687;56.232;43.854;2023-05-07T03:33:15;101543.56;;;1.39;67.10
73453;BME280;61687;56.232;43.854;2023-05-07T03:35:41;101555.44;;;1.38;67.19
73453;BME280;61687;56.232;43.854;2023-05-07T03:38:07;101545.41;;;1.44;67.00
73453;BME280;61687;56.232;43.854;2023-05-07T03:40:35;101559.19;;;1.37;67.21
73453;BME280;61687;56.232;43.854;2023-05-07T03:43:03;101559.22;;;1.42;66.75
73453;BME280;61687;56.232;43.854;2023-05-07T03:45:31;101554.38;;;1.39;66.70
73453;BME280;61687;56.232;43.854;2023-05-07T03:48:08;101554.06;;;1.41;66.55
73453;BME280;61687;56.232;43.854;2023-05-07T03:50:35;101546.78;;;1.41;66.42
73453;BME280;61687;56.232;43.854;2023-05-07T03:53:01;101557.00;;;1.60;66.11
73453;BME280;61687;56.232;43.854;2023-05-07T03:55:29;101555.31;;;1.75;65.71
73453;BME280;61687;56.232;43.854;2023-05-07T03:57:58;101564.28;;;1.70;65.70
73453;BME280;61687;56.232;43.854;2023-05-07T04:00:26;101552.31;;;1.81;65.25
73453;BME280;61687;56.232;43.854;2023-05-07T04:02:52;101553.06;;;1.97;64.76
73453;BME280;61687;56.232;43.854;2023-05-07T04:05:25;101562.19;;;2.12;64.27
73453;BME280;61687;56.232;43.854;2023-05-07T04:07:55;101560.78;;;2.20;63.82
73453;BME280;61687;56.232;43.854;2023-05-07T04:10:29;101562.97;;;2.18;63.86
73453;BME280;61687;56.232;43.854;2023-05-07T04:12:57;101566.84;;;2.01;63.92
73453;BME280;61687;56.232;43.854;2023-05-07T04:15:25;101567.28;;;2.19;63.52
73453;BME280;61687;56.232;43.854;2023-05-07T04:17:51;101578.56;;;2.36;63.35
73453;BME280;61687;56.232;43.854;2023-05-07T04:20:19;101573.88;;;2.47;62.68
73453;BME280;61687;56.232;43.854;2023-05-07T04:22:51;101571.44;;;2.46;62.43
73453;BME280;61687;56.232;43.854;2023-05-07T04:25:17;101574.25;;;2.30;62.46
73453;BME280;61687;56.232;43.854;2023-05-07T04:27:44;101574.47;;;2.39;62.83
73453;BME280;61687;56.232;43.854;2023-05-07T04:30:10;101571.72;;;2.44;62.09
73453;BME280;61687;56.232;43.854;2023-05-07T04:32:38;101577.06;;;2.54;61.70
73453;BME280;61687;56.232;43.854;2023-05-07T04:35:06;101575.94;;;2.66;61.23
73453;BME280;61687;56.232;43.854;2023-05-07T04:37:33;101580.78;;;2.69;60.89
73453;BME280;61687;56.232;43.854;2023-05-07T04:39:59;101579.53;;;2.85;60.59
73453;BME280;61687;56.232;43.854;2023-05-07T04:42:30;101574.31;;;2.99;60.27
73453;BME280;61687;56.232;43.854;2023-05-07T04:44:58;101571.81;;;3.03;59.72
73453;BME280;61687;56.232;43.854;2023-05-07T04:47:24;101580.28;;;3.26;58.71
73453;BME280;61687;56.232;43.854;2023-05-07T04:49:50;101585.16;;;3.29;58.34
73453;BME280;61687;56.232;43.854;2023-05-07T04:52:17;101581.56;;;3.34;57.70
73453;BME280;61687;56.232;43.854;2023-05-07T04:54:43;101579.28;;;3.46;57.80
73453;BME280;61687;56.232;43.854;2023-05-07T04:57:09;101589.41;;;3.60;57.19
73453;BME280;61687;56.232;43.854;2023-05-07T04:59:35;101572.59;;;3.63;56.85
73453;BME280;61687;56.232;43.854;2023-05-07T05:02:01;101575.84;;;3.60;56.83
73453;BME280;61687;56.232;43.854;2023-05-07T05:04:30;101583.03;;;3.75;56.34
73453;BME280;61687;56.232;43.854;2023-05-07T05:06:56;101592.19;;;3.79;56.05
73453;BME280;61687;56.232;43.854;2023-05-07T05:09:22;101583.34;;;3.92;55.04
73453;BME280;61687;56.232;43.854;2023-05-07T05:11:48;101589.41;;;3.84;54.84
73453;BME280;61687;56.232;43.854;2023-05-07T05:14:14;101582.91;;;3.85;54.86
73453;BME280;61687;56.232;43.854;2023-05-07T05:16:42;101586.34;;;3.91;55.07
73453;BME280;61687;56.232;43.854;2023-05-07T05:19:08;101583.38;;;4.11;53.25
73453;BME280;61687;56.232;43.854;2023-05-07T05:21:37;101592.28;;;4.17;53.32
73453;BME280;61687;56.232;43.854;2023-05-07T05:24:07;101577.25;;;4.25;53.18
73453;BME280;61687;56.232;43.854;2023-05-07T05:26:33;101583.19;;;4.27;52.76
73453;BME280;61687;56.232;43.854;2023-05-07T05:28:59;101575.75;;;4.33;52.73
73453;BME280;61687;56.232;43.854;2023-05-07T05:31:27;101584.78;;;4.47;52.12
73453;BME280;61687;56.232;43.854;2023-05-07T05:33:54;101580.97;;;4.48;51.32
73453;BME280;61687;56.232;43.854;2023-05-07T05:36:20;101587.50;;;4.47;51.13
73453;BME280;61687;56.232;43.854;2023-05-07T05:38:47;101586.50;;;4.76;51.19
73453;BME280;61687;56.232;43.854;2023-05-07T05:41:13;101579.44;;;4.94;50.81
73453;BME280;61687;56.232;43.854;2023-05-07T05:43:39;101582.00;;;5.19;50.40
73453;BME280;61687;56.232;43.854;2023-05-07T05:46:06;101583.97;;;5.32;50.02
73453;BME280;61687;56.232;43.854;2023-05-07T05:48:32;101580.66;;;5.49;49.48
73453;BME280;61687;56.232;43.854;2023-05-07T05:51:00;101581.34;;;5.55;48.83
73453;BME280;61687;56.232;43.854;2023-05-07T05:53:26;101588.22;;;5.66;48.53
73453;BME280;61687;56.232;43.854;2023-05-07T05:55:53;101584.38;;;5.81;48.33
73453;BME280;61687;56.232;43.854;2023-05-07T05:58:19;101582.56;;;5.91;47.36
73453;BME280;61687;56.232;43.854;2023-05-07T06:00:51;101583.47;;;6.14;46.91
73453;BME280;61687;56.232;43.854;2023-05-07T06:03:21;101585.09;;;6.15;47.55
73453;BME280;61687;56.232;43.854;2023-05-07T06:05:47;101578.94;;;6.09;46.79
73453;BME280;61687;56.232;43.854;2023-05-07T06:08:14;101586.94;;;6.06;47.69
73453;BME280;61687;56.232;43.854;2023-05-07T06:10:40;101596.38;;;5.94;46.95
73453;BME280;61687;56.232;43.854;2023-05-07T06:13:07;101588.50;;;5.79;47.08
73453;BME280;61687;56.232;43.854;2023-05-07T06:15:35;101598.78;;;5.40;46.66
73453;BME280;61687;56.232;43.854;2023-05-07T06:18:07;101596.66;;;5.51;46.83
73453;BME280;61687;56.232;43.854;2023-05-07T06:20:33;101596.28;;;5.85;46.57
73453;BME280;61687;56.232;43.854;2023-05-07T06:23:01;101585.91;;;6.01;46.72
73453;BME280;61687;56.232;43.854;2023-05-07T06:25:28;101625.78;;;5.92;45.60
73453;BME280;61687;56.232;43.854;2023-05-07T06:27:54;101608.06;;;5.67;45.25
73453;BME280;61687;56.232;43.854;2023-05-07T06:30:20;101602.50;;;5.72;45.01
73453;BME280;61687;56.232;43.854;2023-05-07T06:32:46;101593.03;;;6.11;45.07
73453;BME280;61687;56.232;43.854;2023-05-07T06:35:13;101591.84;;;6.04;44.83
73453;BME280;61687;56.232;43.854;2023-05-07T06:37:41;101597.75;;;6.34;44.75
73453;BME280;61687;56.232;43.854;2023-05-07T06:40:13;101592.34;;;6.20;44.24
73453;BME280;61687;56.232;43.854;2023-05-07T06:42:39;101603.63;;;6.13;44.38
73453;BME280;61687;56.232;43.854;2023-05-07T06:45:28;101601.25;;;6.48;42.34
73453;BME280;61687;56.232;43.854;2023-05-07T06:47:55;101588.00;;;7.01;42.25
73453;BME280;61687;56.232;43.854;2023-05-07T06:50:22;101597.22;;;6.68;42.13
73453;BME280;61687;56.232;43.854;2023-05-07T06:52:49;101605.78;;;6.39;42.90
73453;BME280;61687;56.232;43.854;2023-05-07T06:55:15;101607.72;;;6.38;41.96
73453;BME280;61687;56.232;43.854;2023-05-07T06:57:40;101614.25;;;6.51;41.58
73453;BME280;61687;56.232;43.854;2023-05-07T07:00:07;101615.88;;;6.98;41.90
73453;BME280;61687;56.232;43.854;2023-05-07T07:02:42;101617.72;;;6.66;41.40
73453;BME280;61687;56.232;43.854;2023-05-07T07:05:10;101618.66;;;6.47;41.23
73453;BME280;61687;56.232;43.854;2023-05-07T07:07:36;101616.47;;;6.35;41.96
73453;BME280;61687;56.232;43.854;2023-05-07T07:10:02;101633.38;;;6.60;41.86
73453;BME280;61687;56.232;43.854;2023-05-07T07:12:31;101618.72;;;6.70;41.14
73453;BME280;61687;56.232;43.854;2023-05-07T07:14:57;101618.34;;;7.08;40.69
73453;BME280;61687;56.232;43.854;2023-05-07T07:17:23;101631.53;;;7.15;40.08
73453;BME280;61687;56.232;43.854;2023-05-07T07:19:49;101612.97;;;6.94;39.91
73453;BME280;61687;56.232;43.854;2023-05-07T07:22:15;101623.78;;;6.85;39.82
73453;BME280;61687;56.232;43.854;2023-05-07T07:24:41;101623.59;;;6.59;40.14
73453;BME280;61687;56.232;43.854;2023-05-07T07:27:09;101622.38;;;6.65;40.66
73453;BME280;61687;56.232;43.854;2023-05-07T07:29:35;101610.66;;;7.10;40.28
73453;BME280;61687;56.232;43.854;2023-05-07T07:32:02;101613.38;;;7.73;39.66
73453;BME280;61687;56.232;43.854;2023-05-07T07:34:28;101611.72;;;8.13;38.70
73453;BME280;61687;56.232;43.854;2023-05-07T07:36:55;101618.16;;;8.17;37.44
73453;BME280;61687;56.232;43.854;2023-05-07T07:39:22;101631.59;;;7.96;37.60
73453;BME280;61687;56.232;43.854;2023-05-07T07:41:52;101615.31;;;7.73;37.90
73453;BME280;61687;56.232;43.854;2023-05-07T07:44:20;101624.22;;;7.56;38.25
73453;BME280;61687;56.232;43.854;2023-05-07T07:46:51;101623.66;;;7.36;38.57
73453;BME280;61687;56.232;43.854;2023-05-07T07:49:18;101622.56;;;6.92;38.68
73453;BME280;61687;56.232;43.854;2023-05-07T07:51:44;101621.41;;;6.84;39.53
73453;BME280;61687;56.232;43.854;2023-05-07T07:54:11;101614.22;;;7.42;38.10
73453;BME280;61687;56.232;43.854;2023-05-07T07:56:38;101621.13;;;7.89;37.73
73453;BME280;61687;56.232;43.854;2023-05-07T07:59:05;101619.88;;;8.04;36.04
73453;BME280;61687;56.232;43.854;2023-05-07T08:01:33;101617.44;;;7.85;36.95
73453;BME280;61687;56.232;43.854;2023-05-07T08:03:59;101632.41;;;7.56;36.48
73453;BME280;61687;56.232;43.854;2023-05-07T08:06:27;101630.09;;;7.40;36.33
73453;BME280;61687;56.232;43.854;2023-05-07T08:08:53;101621.56;;;7.33;36.77
73453;BME280;61687;56.232;43.854;2023-05-07T08:11:19;101626.19;;;7.33;36.78
73453;BME280;61687;56.232;43.854;2023-05-07T08:13:46;101618.06;;;7.41;36.83
73453;BME280;61687;56.232;43.854;2023-05-07T08:16:12;101620.22;;;7.62;37.23
73453;BME280;61687;56.232;43.854;2023-05-07T08:18:39;101622.63;;;7.64;36.95
73453;BME280;61687;56.232;43.854;2023-05-07T08:21:05;101624.97;;;7.48;36.82
73453;BME280;61687;56.232;43.854;2023-05-07T08:23:32;101628.34;;;7.44;36.89
73453;BME280;61687;56.232;43.854;2023-05-07T08:26:00;101626.03;;;7.38;37.55
73453;BME280;61687;56.232;43.854;2023-05-07T08:28:26;101630.28;;;7.44;37.31
73453;BME280;61687;56.232;43.854;2023-05-07T08:30:52;101633.06;;;7.30;37.64
73453;BME280;61687;56.232;43.854;2023-05-07T08:33:18;101624.72;;;7.26;37.99
73453;BME280;61687;56.232;43.854;2023-05-07T08:35:44;101633.31;;;7.42;37.54
73453;BME280;61687;56.232;43.854;2023-05-07T08:38:13;101624.19;;;7.47;36.65
73453;BME280;61687;56.232;43.854;2023-05-07T08:40:39;101628.88;;;7.24;36.17
73453;BME280;61687;56.232;43.854;2023-05-07T08:43:13;101631.38;;;7.11;37.07
73453;BME280;61687;56.232;43.854;2023-05-07T08:45:40;101625.72;;;7.08;37.72
73453;BME280;61687;56.232;43.854;2023-05-07T08:48:14;101634.81;;;7.26;37.05
73453;BME280;61687;56.232;43.854;2023-05-07T08:50:42;101636.78;;;7.34;36.30
73453;BME280;61687;56.232;43.854;2023-05-07T08:53:09;101631.00;;;7.36;35.59
73453;BME280;61687;56.232;43.854;2023-05-07T08:55:35;101657.41;;;7.49;35.64
73453;BME280;61687;56.232;43.854;2023-05-07T08:58:02;101639.41;;;7.80;35.27
73453;BME280;61687;56.232;43.854;2023-05-07T09:00:29;101640.44;;;8.01;34.92
73453;BME280;61687;56.232;43.854;2023-05-07T09:02:57;101635.94;;;8.06;34.53
73453;BME280;61687;56.232;43.854;2023-05-07T09:05:23;101638.28;;;7.81;34.46
73453;BME280;61687;56.232;43.854;2023-05-07T09:07:50;101637.97;;;7.82;34.45
73453;BME280;61687;56.232;43.854;2023-05-07T09:10:16;101636.59;;;8.02;34.52
73453;BME280;61687;56.232;43.854;2023-05-07T09:12:47;101635.50;;;8.12;34.34
73453;BME280;61687;56.232;43.854;2023-05-07T09:15:15;101643.16;;;8.59;34.43
73453;BME280;61687;56.232;43.854;2023-05-07T09:17:43;101636.47;;;8.16;34.07
73453;BME280;61687;56.232;43.854;2023-05-07T09:20:09;101645.94;;;8.10;33.84
73453;BME280;61687;56.232;43.854;2023-05-07T09:22:37;101650.78;;;8.31;34.01
73453;BME280;61687;56.232;43.854;2023-05-07T09:25:07;101635.97;;;8.14;33.61
73453;BME280;61687;56.232;43.854;2023-05-07T09:27:35;101634.94;;;8.51;33.49
73453;BME280;61687;56.232;43.854;2023-05-07T09:30:08;101643.16;;;8.51;33.70
73453;BME280;61687;56.232;43.854;2023-05-07T09:32:36;101629.59;;;8.45;33.97
73453;BME280;61687;56.232;43.854;2023-05-07T09:35:17;101641.13;;;8.34;34.07
73453;BME280;61687;56.232;43.854;2023-05-07T09:37:46;101647.44;;;8.34;34.59
73453;BME280;61687;56.232;43.854;2023-05-07T09:40:21;101650.78;;;8.22;34.64
73453;BME280;61687;56.232;43.854;2023-05-07T09:42:48;101642.81;;;8.52;34.19
73453;BME280;61687;56.232;43.854;2023-05-07T09:45:28;101643.84;;;8.25;33.55
73453;BME280;61687;56.232;43.854;2023-05-07T09:47:58;101652.19;;;8.11;33.96
73453;BME280;61687;56.232;43.854;2023-05-07T09:50:32;101646.31;;;7.86;34.35
73453;BME280;61687;56.232;43.854;2023-05-07T09:53:00;101652.13;;;7.93;34.62
73453;BME280;61687;56.232;43.854;2023-05-07T09:55:27;101651.06;;;8.12;35.05
73453;BME280;61687;56.232;43.854;2023-05-07T09:57:53;101656.41;;;8.17;34.51
73453;BME280;61687;56.232;43.854;2023-05-07T10:00:22;101666.00;;;8.06;35.12
73453;BME280;61687;56.232;43.854;2023-05-07T10:02:51;101675.31;;;8.05;35.56
73453;BME280;61687;56.232;43.854;2023-05-07T10:05:23;101669.81;;;7.96;35.09
73453;BME280;61687;56.232;43.854;2023-05-07T10:07:53;101659.34;;;7.89;35.44
73453;BME280;61687;56.232;43.854;2023-05-07T10:10:22;101651.34;;;7.93;35.21
73453;BME280;61687;56.232;43.854;2023-05-07T10:12:50;101660.78;;;7.86;35.68
73453;BME280;61687;56.232;43.854;2023-05-07T10:15:24;101663.28;;;7.74;35.46
73453;BME280;61687;56.232;43.854;2023-05-07T10:17:54;101666.81;;;7.66;35.48
73453;BME280;61687;56.232;43.854;2023-05-07T10:20:22;101668.47;;;7.53;35.66
73453;BME280;61687;56.232;43.854;2023-05-07T10:22:50;101675.00;;;7.74;35.50
73453;BME280;61687;56.232;43.854;2023-05-07T10:25:30;101676.06;;;7.87;35.45
73453;BME280;61687;56.232;43.854;2023-05-07T10:28:04;101675.81;;;8.15;35.33
73453;BME280;61687;56.232;43.854;2023-05-07T10:33:24;101682.66;;;8.53;34.77
73453;BME280;61687;56.232;43.854;2023-05-07T10:35:57;101672.66;;;8.31;34.38
73453;BME280;61687;56.232;43.854;2023-05-07T10:38:24;101678.22;;;8.26;35.46
73453;BME280;61687;56.232;43.854;2023-05-07T10:40:51;101686.91;;;8.19;35.32
73453;BME280;61687;56.232;43.854;2023-05-07T10:43:17;101691.91;;;8.35;35.40
73453;BME280;61687;56.232;43.854;2023-05-07T10:46:16;101687.97;;;9.29;32.70
73453;BME280;61687;56.232;43.854;2023-05-07T10:49:09;101682.66;;;10.49;31.47
73453;BME280;61687;56.232;43.854;2023-05-07T10:51:44;101688.16;;;10.49;30.72
73453;BME280;61687;56.232;43.854;2023-05-07T10:54:24;101694.00;;;10.09;30.96
73453;BME280;61687;56.232;43.854;2023-05-07T11:00:44;101672.72;;;11.79;29.35
73453;BME280;61687;56.232;43.854;2023-05-07T11:05:42;101679.94;;;13.15;26.87
73453;BME280;61687;56.232;43.854;2023-05-07T11:08:17;101678.97;;;13.68;26.86
73453;BME280;61687;56.232;43.854;2023-05-07T11:10:56;101674.44;;;13.76;27.78
73453;BME280;61687;56.232;43.854;2023-05-07T11:13:53;101675.31;;;12.63;27.27
73453;BME280;61687;56.232;43.854;2023-05-07T11:16:29;101686.97;;;10.80;28.92
73453;BME280;61687;56.232;43.854;2023-05-07T11:19:07;101674.41;;;10.28;30.25
73453;BME280;61687;56.232;43.854;2023-05-07T11:21:40;101671.41;;;9.82;31.22
73453;BME280;61687;56.232;43.854;2023-05-07T11:24:39;101673.88;;;10.35;30.78
73453;BME280;61687;56.232;43.854;2023-05-07T11:27:07;101660.66;;;11.00;29.31
73453;BME280;61687;56.232;43.854;2023-05-07T11:29:33;101678.38;;;12.20;28.80
73453;BME280;61687;56.232;43.854;2023-05-07T11:32:12;101673.03;;;12.65;25.68
73453;BME280;61687;56.232;43.854;2023-05-07T11:34:45;101682.16;;;12.03;26.22
73453;BME280;61687;56.232;43.854;2023-05-07T11:37:17;101681.34;;;11.31;26.99
73453;BME280;61687;56.232;43.854;2023-05-07T11:39:51;101694.13;;;10.72;28.65
73453;BME280;61687;56.232;43.854;2023-05-07T11:42:31;101687.09;;;10.02;30.21
73453;BME280;61687;56.232;43.854;2023-05-07T11:44:58;101693.97;;;9.79;30.70
73453;BME280;61687;56.232;43.854;2023-05-07T11:47:24;101688.69;;;9.65;31.63
73453;BME280;61687;56.232;43.854;2023-05-07T11:49:54;101700.84;;;9.20;32.38
73453;BME280;61687;56.232;43.854;2023-05-07T11:52:22;101706.19;;;9.07;33.18
73453;BME280;61687;56.232;43.854;2023-05-07T11:54:52;101713.25;;;8.82;33.29
73453;BME280;61687;56.232;43.854;2023-05-07T11:57:19;101714.69;;;8.79;33.64
73453;BME280;61687;56.232;43.854;2023-05-07T11:59:45;101712.91;;;8.66;34.07
73453;BME280;61687;56.232;43.854;2023-05-07T12:02:14;101726.75;;;8.96;33.30
73453;BME280;61687;56.232;43.854;2023-05-07T12:04:41;101708.56;;;9.00;33.08
73453;BME280;61687;56.232;43.854;2023-05-07T12:07:17;101719.03;;;9.33;32.58
73453;BME280;61687;56.232;43.854;2023-05-07T12:09:45;101711.00;;;10.23;30.89
73453;BME280;61687;56.232;43.854;2023-05-07T12:12:11;101711.56;;;10.68;30.59
73453;BME280;61687;56.232;43.854;2023-05-07T12:14:40;101711.66;;;10.20;31.47
73453;BME280;61687;56.232;43.854;2023-05-07T12:17:10;101721.69;;;9.77;31.71
73453;BME280;61687;56.232;43.854;2023-05-07T12:19:38;101708.84;;;9.51;32.18
73453;BME280;61687;56.232;43.854;2023-05-07T12:22:06;101714.50;;;9.28;32.06
73453;BME280;61687;56.232;43.854;2023-05-07T12:24:58;101711.09;;;9.58;31.91
73453;BME280;61687;56.232;43.854;2023-05-07T12:27:25;101717.59;;;9.27;31.87
73453;BME280;61687;56.232;43.854;2023-05-07T12:29:52;101720.31;;;8.74;32.56
73453;BME280;61687;56.232;43.854;2023-05-07T12:32:19;101730.13;;;8.75;33.29
73453;BME280;61687;56.232;43.854;2023-05-07T12:34:49;101730.97;;;9.02;33.27
73453;BME280;61687;56.232;43.854;2023-05-07T12:37:16;101725.78;;;9.27;32.93
73453;BME280;61687;56.232;43.854;2023-05-07T12:39:49;101733.47;;;9.42;32.42
73453;BME280;61687;56.232;43.854;2023-05-07T12:42:16;101742.31;;;9.66;31.88
73453;BME280;61687;56.232;43.854;2023-05-07T12:44:45;101733.94;;;11.00;30.28
73453;BME280;61687;56.232;43.854;2023-05-07T12:47:11;101732.13;;;13.12;27.96
73453;BME280;61687;56.232;43.854;2023-05-07T12:49:38;101730.50;;;15.23;25.23
73453;BME280;61687;56.232;43.854;2023-05-07T12:52:06;101723.31;;;14.43;26.47
73453;BME280;61687;56.232;43.854;2023-05-07T12:54:34;101733.88;;;12.76;27.77
73453;BME280;61687;56.232;43.854;2023-05-07T12:57:08;101724.44;;;11.31;29.35
73453;BME280;61687;56.232;43.854;2023-05-07T12:59:36;101736.13;;;10.64;30.62
73453;BME280;61687;56.232;43.854;2023-05-07T13:02:03;101728.47;;;10.10;30.63
73453;BME280;61687;56.232;43.854;2023-05-07T13:04:29;101738.78;;;10.13;30.28